Airfield :







YOU CAN JOIN US ON...

 
LOGIN :

Register | Disclaimer

   EN    FR    IT 

 









Legend :    VFR   Marginal VFR   IFR   Intensive IFR   Very Intensive IFR
Visi :
Ceiling :
>= 8 km
>= 3000ft
5 to 8 km
1000 to 3000 ft
1500m to 5 km
500 to 1000 ft
800 to 1500m
200 to 500 ft
< 800m
< 200 ft
Symbols :   Thunderstorms  Fog  Heavy snow  Heavy precipitations  Wind > 20 kt






- Airport Elevation : 285 ft
- IATA code : ALB


KALB - Albany International

CURRENT METAR :
  • 060551Z 30006KT 10SM FEW150 08/02 A3002 RMK AO2 SLP167 T00780022 10139 20078 50002

EXPIRED METARs :
  • 060451Z 29011KT 10SM FEW150 FEW250 09/03 A3003 RMK AO2 SLP168 T00890028 401670083
  • 060351Z 29011KT 10SM FEW150 SCT250 09/03 A3003 RMK AO2 SLP168 T00940028

TAF KALB
Valid from the 06 at 06:00 until the 07 at 06:00 UTC


060520Z 0606/0706 30008KT P6SM FEW150 FEW250
FM061600 30012G20KT P6SM SCT200
FM070000 29005KT P6SM BKN180



MET'MAP, your aeronautical weather chart ! - Copyright ORBIFLY December 2007 - Disclaimer

ORBIFLY MET'MAP TEAM :

Programming & Development : Alexandra Zaïnal
Concept & original design : Baudouin d'Aumeries
Assistance for programming : Marc-Olivier Méhu
Technical & hardware support : Manuel Goepfert

Contact : metmap@orbifly.com




SOURCES & CREDITS :

   NOAA